Kezdőlap
METAR-TAF:

METAR-TAF

Repülőterek :

Kuala Terengganu, Malajzia

földrajzi szélesség: 05-22-53N, földrajzi hosszúság: 103-06-17E, magasság: 6 m

Jelenlegi meteorológiai megfigyelések

A jelentés 30 perccel ezelõtt készült, 22:00 UTC
Különbözõ irányokból fújó szél 2 kt
Hőmérséklet 26°C
Páratartalom 94%
Légköri nyomás 1010 hPa
Látótávolság 10 km, vagy több
Kevés felhő 2200 lábon

METAR: WMKN 122200Z VRB02KT 9999 FEW022 26/25 Q1010

Idő: 06:30 (22:30 UTC)

Előrejelzés

A jelentés 5 órával és 30 perccel ezelõtt készült, 17:00 UTC
Az előrejelzés 12-én 18 óra UTC és 13-én 18 óra UTC között érvényes
Dél-délnyugati szél 5 kt
Látótávolság 10 km, vagy több
Kevés felhő 2200 lábon

TAF: WMKN 121700Z 1218/1318 21005KT 9999 FEW022

Meteorológiai megfigyelések és előrejelzések több, mint 4000 repülőtéren (METAR és TAF jelentéseket).

A térképen piros és sárga pontok jelzik az elérhető meteorológiai állomásokat.

Mozgassa az egeret a pont fölött, hogy megjelenjen az állomás neve.

Azután kattintson az időjárási megfigyelések és előrejelzések megtekintéséhez.

A térkép megváltoztatása: kattintson a fekete keresztel jelölt zöld gombra ráközelítéshez, a vonallal jelölt zöld gombra távolításhoz, vagy a zöld nyilakra a szomszédos térképek eléréséhez.


METAR-TAF: